Time;durP1;ratioP1;P1;durP2;ratioP2;P2;SDS_P1;SDS_P2;PMS_P1;PMS_P2;Temp;Humidity;BMP_temperature;BMP_pressure;BME280_temperature;BME280_humidity;BME280_pressure;Samples;Min_cycle;Max_cycle;Signal;HPM_P1;HPM_P2
2023/02/19 00:01:12;;;;;;;;;;;;;;;1.25;83.03;93677.22;5011001;28;19926;-48
2023/02/19 00:03:38;;;;;;;;;;;;;;;1.32;82.66;93684.19;5015736;28;20344;-46
2023/02/19 00:06:04;;;;;;;;;;;;;;;1.45;81.36;93696.16;5013925;28;19921;-48
2023/02/19 00:08:32;;;;;;;;;;;;;;;1.31;81.49;93691.59;5012226;28;20448;-47
2023/02/19 00:11:05;;;;;;;;;;;;;;;1.29;81.68;93677.00;5014898;28;19963;-47
2023/02/19 00:13:30;;;;;;;;;;;;;;;1.21;82.03;93689.53;5016597;28;20003;-47
2023/02/19 00:15:56;;;;;;;;;;;;;;;1.08;82.96;93678.31;5014222;28;20024;-47
2023/02/19 00:18:22;;;;;;;;;;;;;;;1.08;82.72;93670.16;5018474;28;19917;-47
2023/02/19 00:20:47;;;;;;;;;;;;;;;1.16;82.85;93671.97;5020255;28;19931;-47
2023/02/19 00:23:12;;;;;;;;;;;;;;;1.00;83.54;93675.28;5019983;28;20609;-47
2023/02/19 00:25:37;;;;;;;;;;;;;;;1.22;82.96;93669.25;5013089;28;19918;-47
2023/02/19 00:28:03;;;;;;;;;;;;;;;1.18;83.20;93685.81;5013264;28;19921;-47
2023/02/19 00:30:28;;;;;;;;;;;;;;;1.08;82.50;93681.78;5017276;28;19918;-48
2023/02/19 00:32:54;;;;;;;;;;;;;;;1.08;82.68;93687.22;5017841;28;19918;-48
2023/02/19 00:35:19;;;;;;;;;;;;;;;0.97;83.74;93684.41;5017788;28;19974;-47
2023/02/19 00:37:45;;;;;;;;;;;;;;;1.08;83.19;93681.03;5017103;28;20031;-48
2023/02/19 00:40:10;;;;;;;;;;;;;;;0.95;84.10;93675.25;5020751;28;20027;-49
2023/02/19 00:42:35;;;;;;;;;;;;;;;1.04;83.50;93670.34;5021716;28;19932;-48
2023/02/19 00:45:00;;;;;;;;;;;;;;;0.99;83.62;93668.34;5017285;28;19971;-48
2023/02/19 00:47:26;;;;;;;;;;;;;;;1.11;83.91;93667.22;5018285;28;19917;-48
2023/02/19 00:49:51;;;;;;;;;;;;;;;0.93;83.99;93659.41;5021211;28;19939;-47
2023/02/19 00:52:16;;;;;;;;;;;;;;;0.82;84.80;93656.59;5025697;28;19921;-49
2023/02/19 00:54:41;;;;;;;;;;;;;;;0.97;85.20;93649.06;5016680;28;19913;-48
2023/02/19 00:57:07;;;;;;;;;;;;;;;0.99;84.68;93657.47;5012516;28;19921;-49
2023/02/19 00:59:32;;;;;;;;;;;;;;;1.00;83.15;93650.81;5023878;28;20000;-47
2023/02/19 01:01:57;;;;;;;;;;;;;;;1.05;83.19;93646.63;5029183;28;20393;-46
2023/02/19 01:04:22;;;;;;;;;;;;;;;1.01;82.84;93637.97;5021169;28;19917;-47
2023/02/19 01:06:48;;;;;;;;;;;;;;;1.06;83.25;93627.13;5024545;28;20020;-47
2023/02/19 01:09:13;;;;;;;;;;;;;;;0.91;82.95;93640.09;5021613;28;19976;-47
2023/02/19 01:11:38;;;;;;;;;;;;;;;0.73;84.08;93633.06;5019299;28;19926;-48
2023/02/19 01:14:04;;;;;;;;;;;;;;;0.72;84.34;93631.56;5029322;28;20590;-48
2023/02/19 01:16:29;;;;;;;;;;;;;;;0.67;85.14;93629.53;5020632;28;19921;-47
2023/02/19 01:18:55;;;;;;;;;;;;;;;0.71;85.20;93627.31;5018426;28;20022;-47
2023/02/19 01:21:21;;;;;;;;;;;;;;;0.73;84.81;93637.75;5023335;28;20377;-47
2023/02/19 01:23:47;;;;;;;;;;;;;;;0.50;85.38;93627.88;5018531;28;19971;-47
2023/02/19 01:26:16;;;;;;;;;;;;;;;0.46;85.35;93624.63;5019187;28;20000;-47
2023/02/19 01:28:42;;;;;;;;;;;;;;;0.31;86.43;93622.03;5018746;28;20616;-47
2023/02/19 01:31:08;;;;;;;;;;;;;;;0.46;87.07;93619.19;5018598;28;19925;-47
2023/02/19 01:33:34;;;;;;;;;;;;;;;0.67;86.15;93639.66;5023283;28;19924;-47
2023/02/19 01:36:01;;;;;;;;;;;;;;;0.65;85.05;93631.97;5013581;28;19917;-47
2023/02/19 01:38:27;;;;;;;;;;;;;;;0.63;84.55;93641.81;5014676;28;20290;-47
2023/02/19 01:40:56;;;;;;;;;;;;;;;0.75;84.01;93674.09;5018975;28;19929;-48
2023/02/19 01:43:21;;;;;;;;;;;;;;;0.34;84.86;93672.66;5018617;28;19921;-47
2023/02/19 01:45:46;;;;;;;;;;;;;;;0.56;84.93;93675.59;5020706;28;19921;-47
2023/02/19 01:48:17;;;;;;;;;;;;;;;0.49;85.04;93661.72;5021233;28;19921;-47
2023/02/19 01:50:45;;;;;;;;;;;;;;;0.40;85.18;93659.88;5026390;28;19913;-47
2023/02/19 01:53:11;;;;;;;;;;;;;;;0.38;86.59;93664.31;5021817;28;19913;-46
2023/02/19 01:55:36;;;;;;;;;;;;;;;0.56;85.51;93645.00;5023024;28;19920;-49
2023/02/19 01:58:01;;;;;;;;;;;;;;;0.56;86.02;93629.41;5023101;28;20317;-47
2023/02/19 02:00:27;;;;;;;;;;;;;;;0.48;87.08;93639.22;5026289;28;19978;-47
2023/02/19 02:02:53;;;;;;;;;;;;;;;0.28;87.52;93654.81;5023451;28;20404;-49
2023/02/19 02:05:37;;;;;;;;;;;;;;;0.31;87.59;93646.47;5024094;28;19968;-47
2023/02/19 02:10:46;;;;;;;;;;;;;;;0.09;87.58;93650.91;5017561;28;19967;-48
2023/02/19 02:13:11;;;;;;;;;;;;;;;0.17;87.19;93646.56;5021410;28;19925;-47
2023/02/19 02:16:06;;;;;;;;;;;;;;;0.20;88.00;93638.19;5024594;28;19924;-47
2023/02/19 02:18:36;;;;;;;;;;;;;;;0.42;87.99;93626.81;5007083;28;19924;-48
2023/02/19 02:21:11;;;;;;;;;;;;;;;0.33;87.64;93632.41;5020881;28;20413;-48
2023/02/19 02:23:40;;;;;;;;;;;;;;;0.35;87.11;93635.38;5020969;28;19964;-47
2023/02/19 02:26:23;;;;;;;;;;;;;;;0.33;87.13;93638.56;5020871;28;20467;-48
2023/02/19 02:28:52;;;;;;;;;;;;;;;0.30;87.39;93628.69;5021382;28;19917;-49
2023/02/19 02:31:24;;;;;;;;;;;;;;;0.20;87.62;93621.91;5020257;28;20024;-47
2023/02/19 02:33:53;;;;;;;;;;;;;;;0.02;88.17;93626.88;5019961;28;19928;-47
2023/02/19 02:36:18;;;;;;;;;;;;;;;-0.04;88.89;93622.13;5015856;28;19921;-47
2023/02/19 02:38:44;;;;;;;;;;;;;;;-0.06;89.34;93634.69;5020859;28;19921;-47
2023/02/19 02:41:09;;;;;;;;;;;;;;;-0.01;89.75;93626.63;5021308;28;19929;-47
2023/02/19 02:43:35;;;;;;;;;;;;;;;-0.03;89.79;93634.50;5024972;28;20416;-47
2023/02/19 02:46:00;;;;;;;;;;;;;;;0.17;89.59;93624.84;5025816;28;19975;-47
2023/02/19 02:48:35;;;;;;;;;;;;;;;0.11;89.36;93627.47;5019961;28;20048;-48
2023/02/19 02:51:01;;;;;;;;;;;;;;;0.15;88.58;93632.72;5021896;28;20282;-48
2023/02/19 02:56:18;;;;;;;;;;;;;;;-0.08;88.71;93653.41;5021684;28;19928;-48
2023/02/19 02:58:44;;;;;;;;;;;;;;;-0.17;89.71;93645.41;5016385;28;19917;-47
2023/02/19 03:03:57;;;;;;;;;;;;;;;0.06;91.13;93644.47;5025678;28;19919;-48
2023/02/19 03:06:22;;;;;;;;;;;;;;;-0.06;91.21;93649.00;5018295;28;19995;-49
2023/02/19 03:09:08;;;;;;;;;;;;;;;0.28;91.71;93646.69;5018309;28;19925;-48
2023/02/19 03:19:58;;;;;;;;;;;;;;;0.92;94.06;93636.16;5020238;28;19920;-48
2023/02/19 03:22:29;;;;;;;;;;;;;;;0.76;93.05;93642.19;5022449;28;20325;-47
2023/02/19 03:27:40;;;;;;;;;;;;;;;1.48;92.56;93640.78;5023320;28;20316;-48
2023/02/19 03:30:09;;;;;;;;;;;;;;;2.01;88.53;93640.06;5018529;28;19917;-47
2023/02/19 03:32:45;;;;;;;;;;;;;;;2.28;85.51;93653.03;5020780;28;19956;-48
2023/02/19 03:35:13;;;;;;;;;;;;;;;1.87;85.96;93673.66;5017381;28;19921;-48
2023/02/19 03:37:43;;;;;;;;;;;;;;;1.87;85.07;93670.94;5021167;28;20396;-48
2023/02/19 03:40:09;;;;;;;;;;;;;;;2.07;84.05;93667.31;5018943;28;19929;-48
2023/02/19 03:42:35;;;;;;;;;;;;;;;1.90;84.21;93680.09;5023661;28;20345;-48
2023/02/19 03:45:26;;;;;;;;;;;;;;;1.70;84.89;93683.69;5015116;28;19980;-48
2023/02/19 03:47:53;;;;;;;;;;;;;;;1.80;84.50;93687.72;5020739;28;19917;-47
2023/02/19 03:50:24;;;;;;;;;;;;;;;1.94;83.72;93688.78;5019281;28;19921;-48
2023/02/19 03:52:52;;;;;;;;;;;;;;;1.77;83.63;93688.69;5018853;28;20298;-48
2023/02/19 03:55:27;;;;;;;;;;;;;;;1.63;85.22;93688.84;5018892;28;19921;-48
2023/02/19 03:57:57;;;;;;;;;;;;;;;1.74;84.76;93680.75;5018677;28;19917;-47
2023/02/19 04:00:25;;;;;;;;;;;;;;;1.74;83.97;93684.22;5020662;28;20063;-47
2023/02/19 04:03:09;;;;;;;;;;;;;;;1.49;84.74;93685.06;5019270;28;19921;-48
2023/02/19 04:05:36;;;;;;;;;;;;;;;1.37;85.19;93657.03;5018045;28;19921;-49
2023/02/19 04:08:03;;;;;;;;;;;;;;;1.49;85.44;93690.50;5021568;28;20400;-48
2023/02/19 04:10:28;;;;;;;;;;;;;;;1.56;84.47;93681.16;5023384;28;19917;-47
2023/02/19 04:12:55;;;;;;;;;;;;;;;1.42;85.42;93680.81;5024174;28;20029;-48
2023/02/19 04:15:21;;;;;;;;;;;;;;;1.20;86.00;93682.59;5019841;28;19921;-48
2023/02/19 04:17:50;;;;;;;;;;;;;;;1.18;86.42;93693.97;5016017;28;19918;-49
2023/02/19 04:20:15;;;;;;;;;;;;;;;1.16;87.65;93687.53;5013115;28;19925;-47
2023/02/19 04:22:40;;;;;;;;;;;;;;;1.14;88.62;93692.69;5018079;28;19979;-48
2023/02/19 04:25:06;;;;;;;;;;;;;;;1.13;88.18;93685.75;5015628;28;20763;-48
2023/02/19 04:27:31;;;;;;;;;;;;;;;1.10;88.61;93687.47;5005077;28;19917;-47
2023/02/19 04:29:57;;;;;;;;;;;;;;;0.95;88.57;93689.59;5013048;28;19923;-47
2023/02/19 04:32:22;;;;;;;;;;;;;;;0.86;88.76;93683.56;5019912;28;19917;-47
2023/02/19 04:34:47;;;;;;;;;;;;;;;0.89;88.69;93688.75;5024095;28;20405;-48
2023/02/19 04:37:12;;;;;;;;;;;;;;;0.86;88.48;93688.97;5019864;28;19917;-47
2023/02/19 04:39:38;;;;;;;;;;;;;;;0.95;88.95;93694.25;5017286;28;19936;-47
2023/02/19 04:42:03;;;;;;;;;;;;;;;0.69;89.82;93697.00;5021966;28;20472;-47
2023/02/19 04:44:28;;;;;;;;;;;;;;;0.77;91.78;93696.09;5024317;28;19939;-48
2023/02/19 04:46:54;;;;;;;;;;;;;;;1.20;91.30;93696.94;5022816;28;19994;-48
2023/02/19 04:49:19;;;;;;;;;;;;;;;1.19;91.04;93700.88;5027763;28;19917;-47
2023/02/19 04:51:44;;;;;;;;;;;;;;;0.95;90.06;93707.84;5025806;28;20324;-47
2023/02/19 04:54:09;;;;;;;;;;;;;;;0.87;90.10;93715.69;5025353;28;19921;-47
2023/02/19 04:56:35;;;;;;;;;;;;;;;0.89;89.02;93701.63;5024850;28;20455;-47
2023/02/19 04:59:00;;;;;;;;;;;;;;;0.72;90.59;93715.03;5026102;28;19917;-48
2023/02/19 05:01:25;;;;;;;;;;;;;;;0.70;90.83;93725.63;5023165;28;19925;-47
2023/02/19 05:03:51;;;;;;;;;;;;;;;0.80;90.03;93734.41;5028146;28;20412;-49
2023/02/19 05:06:16;;;;;;;;;;;;;;;0.65;90.46;93729.06;5023500;28;19921;-47
2023/02/19 05:08:41;;;;;;;;;;;;;;;0.73;90.47;93730.13;5025791;28;19916;-48
2023/02/19 05:11:09;;;;;;;;;;;;;;;0.55;90.79;93731.16;5024050;28;19917;-48
2023/02/19 05:13:34;;;;;;;;;;;;;;;0.42;90.87;93732.72;5025652;28;19971;-47
2023/02/19 05:16:00;;;;;;;;;;;;;;;0.34;91.35;93743.28;5021497;28;19921;-47
2023/02/19 05:18:26;;;;;;;;;;;;;;;0.45;92.00;93742.66;5026077;28;20056;-47
2023/02/19 05:20:51;;;;;;;;;;;;;;;0.34;92.32;93750.66;5025863;28;20008;-49
2023/02/19 05:23:17;;;;;;;;;;;;;;;0.45;92.73;93754.28;5015935;28;19928;-48
2023/02/19 05:25:42;;;;;;;;;;;;;;;0.48;91.94;93753.31;5023883;28;20405;-49
2023/02/19 05:28:16;;;;;;;;;;;;;;;0.45;91.89;93751.56;5023208;28;19917;-48
2023/02/19 05:30:48;;;;;;;;;;;;;;;0.41;91.55;93753.72;5027234;28;19917;-48
2023/02/19 05:33:14;;;;;;;;;;;;;;;0.48;91.32;93749.84;5023215;28;19960;-48
2023/02/19 05:35:41;;;;;;;;;;;;;;;0.57;91.75;93753.16;5024845;28;19975;-47
2023/02/19 05:38:07;;;;;;;;;;;;;;;0.55;91.73;93752.91;5021465;28;19917;-47
2023/02/19 05:40:32;;;;;;;;;;;;;;;0.56;91.04;93750.94;5027742;28;19918;-47
2023/02/19 05:42:57;;;;;;;;;;;;;;;0.47;91.27;93757.25;5025363;28;19956;-47
2023/02/19 05:45:23;;;;;;;;;;;;;;;0.47;92.01;93765.41;5019955;28;19917;-47
2023/02/19 05:47:48;;;;;;;;;;;;;;;0.52;92.35;93766.69;5024043;28;19932;-47
2023/02/19 05:50:13;;;;;;;;;;;;;;;0.63;92.08;93761.38;5025507;28;19971;-47
2023/02/19 05:52:39;;;;;;;;;;;;;;;0.53;92.42;93760.03;5023447;28;19936;-49
2023/02/19 05:55:04;;;;;;;;;;;;;;;0.68;93.00;93760.69;5025369;28;19963;-47
2023/02/19 05:57:29;;;;;;;;;;;;;;;0.94;92.99;93758.75;5022864;28;19924;-47
2023/02/19 05:59:55;;;;;;;;;;;;;;;1.07;92.08;93764.56;5024860;28;20422;-48
2023/02/19 06:02:20;;;;;;;;;;;;;;;1.05;90.74;93771.72;5014826;28;19928;-47
2023/02/19 06:04:45;;;;;;;;;;;;;;;1.16;88.61;93771.81;5024683;28;19921;-47
2023/02/19 06:07:11;;;;;;;;;;;;;;;1.25;88.44;93780.56;5021289;28;19995;-47
2023/02/19 06:09:36;;;;;;;;;;;;;;;1.42;87.66;93780.72;5022022;28;19921;-47
2023/02/19 06:12:01;;;;;;;;;;;;;;;1.29;88.07;93785.78;5025647;28;19994;-48
2023/02/19 06:14:26;;;;;;;;;;;;;;;1.53;88.51;93788.97;5022326;28;19991;-48
2023/02/19 06:16:52;;;;;;;;;;;;;;;1.70;87.79;93791.81;5026583;28;19924;-48
2023/02/19 06:19:17;;;;;;;;;;;;;;;1.86;87.04;93794.69;5025542;28;20290;-48
2023/02/19 06:21:42;;;;;;;;;;;;;;;2.01;85.51;93795.28;5017882;28;19944;-47
2023/02/19 06:24:08;;;;;;;;;;;;;;;2.08;86.55;93794.09;5023706;28;19921;-48
2023/02/19 06:26:33;;;;;;;;;;;;;;;2.45;85.64;93794.78;5022602;28;19995;-47
2023/02/19 06:28:59;;;;;;;;;;;;;;;2.65;84.72;93819.16;5021812;28;20392;-49
2023/02/19 06:31:24;;;;;;;;;;;;;;;2.93;83.45;93808.38;5021866;28;20840;-48
2023/02/19 06:33:50;;;;;;;;;;;;;;;3.15;82.73;93813.16;5024601;28;20417;-49
2023/02/19 06:36:16;;;;;;;;;;;;;;;3.32;80.99;93803.78;5026229;28;19992;-48
2023/02/19 06:38:41;;;;;;;;;;;;;;;3.73;80.67;93802.09;5025147;28;19986;-48
2023/02/19 06:41:07;;;;;;;;;;;;;;;4.40;77.57;93800.03;5019760;28;20586;-48
2023/02/19 06:43:32;;;;;;;;;;;;;;;4.50;76.09;93817.66;5025915;28;19996;-49
2023/02/19 06:45:59;;;;;;;;;;;;;;;4.69;75.52;93819.88;5024917;28;20351;-49
2023/02/19 06:48:29;;;;;;;;;;;;;;;4.74;73.86;93822.59;5024676;28;20456;-48
2023/02/19 06:50:55;;;;;;;;;;;;;;;4.67;74.44;93812.16;5020101;28;19921;-48
2023/02/19 06:53:20;;;;;;;;;;;;;;;5.55;72.45;93832.94;5023660;28;19917;-47
2023/02/19 06:55:58;;;;;;;;;;;;;;;5.70;71.13;93821.63;5022783;28;19913;-47
2023/02/19 06:58:24;;;;;;;;;;;;;;;6.72;66.64;93821.78;5019982;28;19984;-48
2023/02/19 07:00:49;;;;;;;;;;;;;;;7.05;64.23;93809.72;5022274;28;19926;-49
2023/02/19 07:03:14;;;;;;;;;;;;;;;6.74;65.86;93817.28;5020790;28;20591;-48
2023/02/19 07:05:39;;;;;;;;;;;;;;;7.44;65.70;93815.47;5022540;28;19928;-48
2023/02/19 07:08:05;;;;;;;;;;;;;;;7.69;62.76;93813.38;5022671;28;19937;-47
2023/02/19 07:10:30;;;;;;;;;;;;;;;8.95;60.88;93805.06;5019596;28;19917;-48
2023/02/19 07:12:55;;;;;;;;;;;;;;;8.70;58.34;93811.28;5015530;28;19921;-48
2023/02/19 07:15:20;;;;;;;;;;;;;;;10.28;56.32;93816.03;5017060;28;20016;-47
2023/02/19 07:17:46;;;;;;;;;;;;;;;11.29;52.26;93814.91;5018313;28;19920;-49
2023/02/19 07:20:11;;;;;;;;;;;;;;;11.19;52.27;93817.44;5021181;28;19917;-49
2023/02/19 07:22:37;;;;;;;;;;;;;;;12.27;50.20;93818.09;5019269;28;19921;-47
2023/02/19 07:25:04;;;;;;;;;;;;;;;12.28;49.75;93816.06;5016599;28;19917;-48
2023/02/19 07:27:29;;;;;;;;;;;;;;;14.37;46.77;93807.88;5017470;28;20340;-47
2023/02/19 07:29:55;;;;;;;;;;;;;;;16.13;42.75;93808.47;5016978;28;19925;-48
2023/02/19 07:32:20;;;;;;;;;;;;;;;15.25;41.21;93810.34;5015724;28;20080;-49
2023/02/19 07:34:45;;;;;;;;;;;;;;;15.17;41.17;93810.41;5017118;28;20562;-47
2023/02/19 07:37:10;;;;;;;;;;;;;;;17.37;39.11;93804.16;5020151;28;19925;-48
2023/02/19 07:39:36;;;;;;;;;;;;;;;19.33;33.73;93806.94;5019916;28;19921;-47
2023/02/19 07:42:01;;;;;;;;;;;;;;;19.52;33.58;93806.84;5016354;28;20360;-48
2023/02/19 07:44:26;;;;;;;;;;;;;;;20.50;32.27;93804.16;5014474;28;20014;-48
2023/02/19 07:46:51;;;;;;;;;;;;;;;21.39;29.85;93798.38;5016788;28;19917;-47
2023/02/19 07:49:17;;;;;;;;;;;;;;;21.66;29.58;93788.09;5016954;28;20028;-49
2023/02/19 07:51:43;;;;;;;;;;;;;;;21.87;28.93;93785.13;5018989;28;20304;-47
2023/02/19 07:54:08;;;;;;;;;;;;;;;22.31;27.95;93781.28;5017791;28;19924;-49
2023/02/19 07:56:33;;;;;;;;;;;;;;;22.71;27.85;93785.63;5015669;28;20067;-46
2023/02/19 07:58:59;;;;;;;;;;;;;;;22.83;28.89;93788.34;5017543;28;19921;-49
2023/02/19 08:04:09;;;;;;;;;;;;;;;22.18;27.45;93795.28;5016424;28;19932;-47
2023/02/19 08:06:34;;;;;;;;;;;;;;;22.71;27.61;93785.63;5018959;28;19948;-48
2023/02/19 08:08:59;;;;;;;;;;;;;;;22.78;27.67;93793.06;5023131;28;20388;-47
2023/02/19 08:14:08;;;;;;;;;;;;;;;23.73;26.78;93789.63;5022279;28;19932;-48
2023/02/19 08:16:33;;;;;;;;;;;;;;;24.78;25.35;93787.03;5020230;28;19917;-48
2023/02/19 08:18:59;;;;;;;;;;;;;;;23.74;25.90;93782.59;5017335;28;20004;-48
2023/02/19 08:21:24;;;;;;;;;;;;;;;24.16;25.58;93781.94;5024042;28;20032;-50
2023/02/19 08:23:49;;;;;;;;;;;;;;;23.88;25.07;93784.06;5026864;28;19921;-47
2023/02/19 08:26:15;;;;;;;;;;;;;;;24.59;25.97;93791.09;5023714;28;20444;-47
2023/02/19 08:28:42;;;;;;;;;;;;;;;24.36;24.66;93787.81;5025212;28;19921;-47
2023/02/19 08:31:08;;;;;;;;;;;;;;;24.65;24.80;93793.44;5024680;28;19921;-48
2023/02/19 08:33:33;;;;;;;;;;;;;;;25.42;23.53;93783.63;5022530;28;20367;-50
2023/02/19 08:36:06;;;;;;;;;;;;;;;24.59;24.24;93799.56;5022753;28;19925;-48
2023/02/19 08:38:33;;;;;;;;;;;;;;;24.53;23.88;93792.88;5021268;28;19921;-49
2023/02/19 08:40:58;;;;;;;;;;;;;;;24.61;24.21;93787.63;5017046;28;19921;-51
2023/02/19 08:43:24;;;;;;;;;;;;;;;25.00;24.33;93787.34;5020371;28;20312;-49
2023/02/19 08:45:51;;;;;;;;;;;;;;;24.70;25.31;93781.72;5019741;28;19925;-49
2023/02/19 08:48:16;;;;;;;;;;;;;;;23.58;25.13;93776.16;5018941;28;20013;-49
2023/02/19 08:50:41;;;;;;;;;;;;;;;24.19;25.04;93766.53;5024129;28;20031;-49
2023/02/19 08:53:07;;;;;;;;;;;;;;;24.72;23.70;93772.59;5021168;28;20416;-49
2023/02/19 08:55:32;;;;;;;;;;;;;;;24.83;23.30;93769.66;5019639;28;20006;-50
2023/02/19 08:57:57;;;;;;;;;;;;;;;24.11;24.06;93763.34;5020650;28;19921;-48
2023/02/19 09:00:23;;;;;;;;;;;;;;;24.44;23.46;93768.44;5018514;28;19917;-49
2023/02/19 09:02:48;;;;;;;;;;;;;;;23.40;25.43;93756.22;5023772;28;19920;-48
2023/02/19 09:05:14;;;;;;;;;;;;;;;23.30;25.08;93764.84;5019118;28;19921;-49
2023/02/19 09:07:39;;;;;;;;;;;;;;;23.48;24.46;93765.09;5017827;28;20013;-49
2023/02/19 09:10:05;;;;;;;;;;;;;;;24.15;23.65;93765.66;5018525;28;20698;-50
2023/02/19 09:12:32;;;;;;;;;;;;;;;23.56;24.09;93765.50;5021886;28;20075;-50
2023/02/19 09:14:57;;;;;;;;;;;;;;;23.55;24.51;93757.66;5023700;28;20448;-48
2023/02/19 09:17:22;;;;;;;;;;;;;;;22.61;25.94;93751.28;5022760;28;20029;-48
2023/02/19 09:19:48;;;;;;;;;;;;;;;23.84;24.90;93755.66;5018776;28;19921;-51
2023/02/19 09:22:13;;;;;;;;;;;;;;;24.06;24.14;93762.41;5022281;28;20397;-50
2023/02/19 09:24:38;;;;;;;;;;;;;;;22.91;25.31;93761.38;5020214;28;19921;-50
2023/02/19 09:27:04;;;;;;;;;;;;;;;23.62;23.79;93757.38;5022067;28;20417;-48
2023/02/19 09:29:29;;;;;;;;;;;;;;;23.11;25.22;93761.69;5018187;28;19921;-49
2023/02/19 09:31:55;;;;;;;;;;;;;;;23.77;23.87;93756.72;5020605;28;19932;-49
2023/02/19 09:34:20;;;;;;;;;;;;;;;24.09;23.77;93757.59;5021465;28;19983;-49
2023/02/19 09:36:47;;;;;;;;;;;;;;;23.93;24.61;93751.84;5018464;28;19925;-49
2023/02/19 09:39:12;;;;;;;;;;;;;;;24.95;23.74;93749.69;5021508;28;20395;-48
2023/02/19 09:41:45;;;;;;;;;;;;;;;24.81;24.16;93744.16;5018730;28;20020;-50
2023/02/19 09:44:10;;;;;;;;;;;;;;;24.29;24.39;93752.22;5020605;28;19921;-49
2023/02/19 09:46:37;;;;;;;;;;;;;;;24.38;24.35;93749.16;5022098;28;19921;-49
2023/02/19 09:49:06;;;;;;;;;;;;;;;24.72;22.78;93747.19;5020033;28;20691;-48
2023/02/19 09:51:33;;;;;;;;;;;;;;;24.93;23.67;93760.91;5019423;28;20650;-48
2023/02/19 09:53:59;;;;;;;;;;;;;;;24.93;22.99;93769.38;5023233;28;19917;-48
2023/02/19 09:56:25;;;;;;;;;;;;;;;24.63;24.57;93762.28;5018801;28;19917;-43
2023/02/19 09:58:51;;;;;;;;;;;;;;;25.07;23.61;93753.09;5019865;28;19921;-48
2023/02/19 10:01:16;;;;;;;;;;;;;;;25.03;23.17;93747.25;5024770;28;20290;-48
2023/02/19 10:03:45;;;;;;;;;;;;;;;24.67;24.72;93746.28;5018555;28;19917;-51
2023/02/19 10:06:11;;;;;;;;;;;;;;;24.51;24.17;93748.34;5019821;28;19921;-47
2023/02/19 10:08:37;;;;;;;;;;;;;;;22.69;26.46;93742.56;5024145;28;19932;-49
2023/02/19 10:11:03;;;;;;;;;;;;;;;22.22;27.82;93734.34;5022943;28;19987;-48
2023/02/19 10:13:32;;;;;;;;;;;;;;;23.15;27.12;93740.13;5017498;28;19917;-47
2023/02/19 10:15:58;;;;;;;;;;;;;;;21.98;28.46;93738.66;5024628;28;19943;-47
2023/02/19 10:18:24;;;;;;;;;;;;;;;22.37;28.34;93736.59;5017418;28;19921;-48
2023/02/19 10:20:50;;;;;;;;;;;;;;;23.22;27.39;93727.06;5019720;28;19936;-48
2023/02/19 10:23:15;;;;;;;;;;;;;;;23.46;26.53;93707.88;5024933;28;20407;-48
2023/02/19 10:25:46;;;;;;;;;;;;;;;23.49;26.02;93706.63;5025106;28;19975;-47
2023/02/19 10:28:13;;;;;;;;;;;;;;;22.45;27.50;93696.94;5018798;28;19921;-48
2023/02/19 10:30:38;;;;;;;;;;;;;;;22.01;28.44;93692.41;5014361;28;19928;-48
2023/02/19 10:33:08;;;;;;;;;;;;;;;21.36;29.82;93692.88;5021697;28;19913;-47
2023/02/19 10:35:50;;;;;;;;;;;;;;;20.26;31.27;93694.00;5018422;28;20055;-47
2023/02/19 10:38:15;;;;;;;;;;;;;;;19.71;31.67;93685.53;5022625;28;19925;-47
2023/02/19 10:40:42;;;;;;;;;;;;;;;20.24;31.73;93673.50;5014182;28;20309;-48
2023/02/19 10:43:08;;;;;;;;;;;;;;;21.74;29.18;93664.16;5021235;28;20424;-48
2023/02/19 10:45:53;;;;;;;;;;;;;;;22.65;28.99;93655.84;5017886;28;19921;-48
2023/02/19 10:48:29;;;;;;;;;;;;;;;22.13;29.78;93645.28;5016824;28;19913;-48
2023/02/19 10:50:56;;;;;;;;;;;;;;;22.76;27.41;93640.19;5012378;28;19921;-47
2023/02/19 10:53:23;;;;;;;;;;;;;;;23.52;27.15;93643.38;5022180;28;19921;-47
2023/02/19 10:55:48;;;;;;;;;;;;;;;24.14;26.32;93634.41;5015988;28;19921;-48
2023/02/19 10:58:26;;;;;;;;;;;;;;;24.64;26.07;93633.88;5014416;28;19971;-47
2023/02/19 11:01:08;;;;;;;;;;;;;;;23.83;26.47;93630.13;5017496;28;19924;-48
2023/02/19 11:03:33;;;;;;;;;;;;;;;24.27;25.67;93625.88;5016057;28;19917;-48
2023/02/19 11:06:00;;;;;;;;;;;;;;;24.98;25.07;93620.56;5013635;28;20291;-47
2023/02/19 11:08:26;;;;;;;;;;;;;;;24.47;24.55;93620.41;5014714;28;19980;-48
2023/02/19 11:10:51;;;;;;;;;;;;;;;24.96;23.38;93606.38;5021301;28;19951;-47
2023/02/19 11:13:27;;;;;;;;;;;;;;;23.87;24.68;93607.75;5016197;28;19925;-47
2023/02/19 11:15:53;;;;;;;;;;;;;;;23.33;27.72;93607.94;5016935;28;20381;-47
2023/02/19 11:18:25;;;;;;;;;;;;;;;23.51;26.45;93606.00;5023521;28;19913;-46
2023/02/19 11:20:55;;;;;;;;;;;;;;;23.32;26.38;93606.47;5016705;28;19925;-48
2023/02/19 11:23:28;;;;;;;;;;;;;;;22.71;26.83;93596.31;5022888;28;20709;-47
2023/02/19 11:25:55;;;;;;;;;;;;;;;22.05;28.04;93599.09;5014957;28;19923;-47
2023/02/19 11:28:39;;;;;;;;;;;;;;;22.14;28.62;93601.00;5014423;28;20359;-47
2023/02/19 11:31:23;;;;;;;;;;;;;;;23.18;26.56;93592.41;5019378;28;20016;-46
2023/02/19 11:33:55;;;;;;;;;;;;;;;22.99;26.85;93587.22;5014244;28;19944;-47
2023/02/19 11:36:24;;;;;;;;;;;;;;;22.51;28.04;93591.06;5017724;28;20270;-47
2023/02/19 11:38:49;;;;;;;;;;;;;;;22.72;26.70;93581.59;5014973;28;19921;-48
2023/02/19 11:41:27;;;;;;;;;;;;;;;22.59;26.98;93588.69;5018586;28;19974;-47
2023/02/19 11:43:52;;;;;;;;;;;;;;;23.31;26.77;93593.72;5018263;28;19922;-47
2023/02/19 11:46:17;;;;;;;;;;;;;;;23.16;27.01;93580.28;5018732;28;19917;-48
2023/02/19 11:48:43;;;;;;;;;;;;;;;23.18;26.49;93578.31;5019127;28;19968;-49
2023/02/19 11:51:27;;;;;;;;;;;;;;;23.06;25.51;93568.53;5019420;28;20634;-50
2023/02/19 11:54:00;;;;;;;;;;;;;;;22.72;26.62;93564.72;5015159;28;20614;-48
2023/02/19 11:56:32;;;;;;;;;;;;;;;23.03;27.03;93558.50;5017117;28;19918;-47
2023/02/19 11:59:16;;;;;;;;;;;;;;;23.06;26.93;93548.81;5020802;28;19925;-48
2023/02/19 12:01:47;;;;;;;;;;;;;;;22.88;25.89;93542.28;5017319;28;20305;-47
2023/02/19 12:04:25;;;;;;;;;;;;;;;23.48;26.10;93542.44;5015421;28;19921;-47
2023/02/19 12:06:53;;;;;;;;;;;;;;;24.03;25.81;93535.19;5017608;28;19916;-50
2023/02/19 12:09:21;;;;;;;;;;;;;;;23.16;27.94;93524.69;5012717;28;19917;-49
2023/02/19 12:12:16;;;;;;;;;;;;;;;24.31;25.84;93526.53;5018744;28;19932;-48
2023/02/19 12:14:41;;;;;;;;;;;;;;;23.40;26.49;93527.25;5005666;28;19913;-48
2023/02/19 12:17:06;;;;;;;;;;;;;;;23.79;25.44;93517.16;5013550;28;19925;-47
2023/02/19 12:19:54;;;;;;;;;;;;;;;23.75;25.76;93521.88;5017881;28;20389;-48
2023/02/19 12:22:26;;;;;;;;;;;;;;;23.71;25.58;93511.13;5016510;28;20487;-47
2023/02/19 12:25:09;;;;;;;;;;;;;;;22.77;26.34;93515.72;5017918;28;19921;-49
2023/02/19 12:27:35;;;;;;;;;;;;;;;21.99;27.98;93506.75;5010812;28;19927;-47
2023/02/19 12:30:00;;;;;;;;;;;;;;;22.63;26.88;93503.03;5015010;28;19917;-46
2023/02/19 12:32:25;;;;;;;;;;;;;;;22.75;26.65;93495.16;5014859;28;20408;-49
2023/02/19 12:35:09;;;;;;;;;;;;;;;22.40;27.71;93487.06;5012822;28;19925;-48
2023/02/19 12:37:34;;;;;;;;;;;;;;;21.73;28.66;93480.75;5017112;28;20011;-49
2023/02/19 12:40:08;;;;;;;;;;;;;;;21.64;28.49;93478.13;5008620;28;20766;-48
2023/02/19 12:42:51;;;;;;;;;;;;;;;21.82;30.04;93471.44;5015252;28;19922;-49
2023/02/19 12:45:21;;;;;;;;;;;;;;;22.00;28.18;93470.94;5009405;28;20087;-47
2023/02/19 12:47:58;;;;;;;;;;;;;;;21.44;29.20;93463.72;5022427;28;20427;-48
2023/02/19 12:50:24;;;;;;;;;;;;;;;22.08;27.00;93458.00;5017250;28;20507;-49
2023/02/19 12:52:51;;;;;;;;;;;;;;;22.01;27.38;93461.13;5010235;28;19939;-47
2023/02/19 12:55:35;;;;;;;;;;;;;;;21.45;28.30;93448.34;5015998;28;19917;-48
2023/02/19 12:58:02;;;;;;;;;;;;;;;21.50;28.30;93435.25;5024392;28;19929;-47
2023/02/19 13:00:27;;;;;;;;;;;;;;;21.78;27.30;93436.72;5023532;28;19926;-48
2023/02/19 13:03:04;;;;;;;;;;;;;;;21.48;28.60;93435.88;5017761;28;19937;-47
2023/02/19 13:05:39;;;;;;;;;;;;;;;21.69;27.85;93432.78;5019413;28;20459;-47
2023/02/19 13:08:16;;;;;;;;;;;;;;;21.51;29.01;93425.44;5017769;28;19914;-48
2023/02/19 13:10:45;;;;;;;;;;;;;;;21.20;29.78;93425.91;5023756;28;20463;-47
2023/02/19 13:13:41;;;;;;;;;;;;;;;21.07;28.71;93424.50;5020819;28;19925;-47
2023/02/19 13:16:08;;;;;;;;;;;;;;;21.36;28.48;93412.72;5007368;28;19922;-48
2023/02/19 13:18:41;;;;;;;;;;;;;;;20.62;29.24;93417.75;5023117;28;19941;-48
2023/02/19 13:21:06;;;;;;;;;;;;;;;19.90;31.74;93399.53;5024737;28;19917;-46